Time;durP1;ratioP1;P1;durP2;ratioP2;P2;SDS_P1;SDS_P2;PMS_P1;PMS_P2;Temp;Humidity;BMP_temperature;BMP_pressure;BME280_temperature;BME280_humidity;BME280_pressure;Samples;Min_cycle;Max_cycle;Signal;HPM_P1;HPM_P2
2021/05/16 00:00:13;;;;;;;0.50;0.13;;;;;;;;;;5061945;28;20048;-80
2021/05/16 00:02:39;;;;;;;0.63;0.17;;;;;;;;;;5062077;28;20025;-79
2021/05/16 00:05:06;;;;;;;0.32;0.22;;;;;;;;;;5063351;28;20025;-81
2021/05/16 00:07:32;;;;;;;0.43;0.10;;;;;;;;;;5061438;28;20025;-80
2021/05/16 00:09:58;;;;;;;0.30;0.30;;;;;;;;;;5062886;28;20021;-80
2021/05/16 00:12:24;;;;;;;0.50;0.30;;;;;;;;;;5063847;28;20025;-80
2021/05/16 00:14:50;;;;;;;0.32;0.10;;;;;;;;;;5064788;28;20097;-80
2021/05/16 00:17:16;;;;;;;1.17;0.20;;;;;;;;;;5067722;28;20040;-81
2021/05/16 00:19:43;;;;;;;2.05;0.10;;;;;;;;;;5067226;28;20048;-81
2021/05/16 00:22:09;;;;;;;0.90;0.22;;;;;;;;;;5066590;28;20100;-80
2021/05/16 00:24:35;;;;;;;1.23;0.20;;;;;;;;;;5067089;28;20044;-80
2021/05/16 00:27:01;;;;;;;1.38;0.30;;;;;;;;;;5063603;28;20429;-81
2021/05/16 00:29:27;;;;;;;0.40;0.13;;;;;;;;;;5063839;28;20021;-80
2021/05/16 00:31:53;;;;;;;0.20;0.20;;;;;;;;;;5064682;28;20036;-80
2021/05/16 00:34:20;;;;;;;2.25;0.85;;;;;;;;;;5064452;28;20025;-80
2021/05/16 00:36:46;;;;;;;1.65;0.20;;;;;;;;;;5066684;28;20025;-80
2021/05/16 00:39:12;;;;;;;0.63;0.38;;;;;;;;;;5074703;28;20052;-79
2021/05/16 00:41:38;;;;;;;0.45;0.10;;;;;;;;;;5074687;28;20268;-81
2021/05/16 00:44:05;;;;;;;1.15;0.40;;;;;;;;;;5063115;28;20497;-81
2021/05/16 00:46:31;;;;;;;0.20;0.20;;;;;;;;;;5061413;28;20373;-81
2021/05/16 00:48:57;;;;;;;0.15;0.13;;;;;;;;;;5062310;28;20029;-81
2021/05/16 00:51:23;;;;;;;1.67;0.20;;;;;;;;;;5062246;28;20031;-81
2021/05/16 00:53:49;;;;;;;1.20;0.10;;;;;;;;;;5061380;28;20024;-80
2021/05/16 00:56:16;;;;;;;0.10;0.10;;;;;;;;;;5061245;28;20031;-81
2021/05/16 00:58:42;;;;;;;0.65;0.30;;;;;;;;;;5060834;28;20020;-80
2021/05/16 01:01:09;;;;;;;1.15;0.13;;;;;;;;;;5062043;28;20033;-81
2021/05/16 01:03:36;;;;;;;0.93;0.35;;;;;;;;;;5061703;28;20021;-81
2021/05/16 01:06:02;;;;;;;0.63;0.20;;;;;;;;;;5062597;28;20017;-81
2021/05/16 01:08:28;;;;;;;0.38;0.10;;;;;;;;;;5061005;28;20025;-79
2021/05/16 01:10:54;;;;;;;0.47;0.15;;;;;;;;;;5060180;28;20469;-80
2021/05/16 01:13:20;;;;;;;0.20;0.20;;;;;;;;;;5062098;28;20021;-81
2021/05/16 01:15:47;;;;;;;0.43;0.10;;;;;;;;;;5064862;28;20013;-81
2021/05/16 01:18:13;;;;;;;0.45;0.20;;;;;;;;;;5061352;28;20025;-81
2021/05/16 01:20:42;;;;;;;0.20;0.20;;;;;;;;;;5065054;28;20020;-80
2021/05/16 01:23:13;;;;;;;1.85;0.28;;;;;;;;;;5069316;28;20033;-81
2021/05/16 01:25:41;;;;;;;0.20;0.10;;;;;;;;;;5071021;28;20024;-80
2021/05/16 01:28:08;;;;;;;0.40;0.30;;;;;;;;;;5070530;28;20030;-80
2021/05/16 01:30:34;;;;;;;1.70;0.40;;;;;;;;;;5070717;28;20025;-81
2021/05/16 01:33:03;;;;;;;0.10;0.10;;;;;;;;;;5067580;28;20032;-80
2021/05/16 01:35:29;;;;;;;0.77;0.20;;;;;;;;;;5065161;28;20021;-80
2021/05/16 01:37:55;;;;;;;0.88;0.20;;;;;;;;;;5064405;28;20084;-80
2021/05/16 01:40:22;;;;;;;0.40;0.17;;;;;;;;;;5065295;28;20037;-81
2021/05/16 01:42:51;;;;;;;0.43;0.10;;;;;;;;;;5062458;28;20029;-81
2021/05/16 01:45:18;;;;;;;1.13;0.30;;;;;;;;;;5063634;28;20020;-81
2021/05/16 01:47:44;;;;;;;1.15;0.28;;;;;;;;;;5065200;28;20217;-80
2021/05/16 01:50:14;;;;;;;0.40;0.20;;;;;;;;;;5068768;28;20092;-79
2021/05/16 01:52:42;;;;;;;0.38;0.20;;;;;;;;;;5066565;28;20029;-81
2021/05/16 01:55:09;;;;;;;1.17;0.30;;;;;;;;;;5067658;28;20079;-80
2021/05/16 01:57:36;;;;;;;1.70;0.30;;;;;;;;;;5063471;28;20086;-79
2021/05/16 02:00:04;;;;;;;1.13;0.30;;;;;;;;;;5061936;28;20057;-80
2021/05/16 02:02:30;;;;;;;0.68;0.40;;;;;;;;;;5064038;28;20036;-80
2021/05/16 02:04:57;;;;;;;0.75;0.30;;;;;;;;;;5062965;28;20021;-81
2021/05/16 02:07:23;;;;;;;0.55;0.20;;;;;;;;;;5063013;28;20044;-81
2021/05/16 02:09:50;;;;;;;0.25;0.25;;;;;;;;;;5071504;28;20021;-81
2021/05/16 02:12:17;;;;;;;0.75;0.40;;;;;;;;;;5061379;28;20041;-81
2021/05/16 02:14:44;;;;;;;0.10;0.10;;;;;;;;;;5063000;28;20036;-81
2021/05/16 02:17:11;;;;;;;0.22;0.10;;;;;;;;;;5070761;28;20032;-81
2021/05/16 02:19:37;;;;;;;1.45;0.10;;;;;;;;;;5062564;28;20029;-80
2021/05/16 02:22:03;;;;;;;0.35;0.20;;;;;;;;;;5061162;28;20029;-82
2021/05/16 02:24:29;;;;;;;1.05;0.10;;;;;;;;;;5061654;28;20459;-81
2021/05/16 02:26:59;;;;;;;0.28;0.10;;;;;;;;;;5061916;28;20081;-81
2021/05/16 02:29:26;;;;;;;1.55;0.30;;;;;;;;;;5060359;28;20025;-81
2021/05/16 02:31:52;;;;;;;0.38;0.30;;;;;;;;;;5065951;28;20025;-81
2021/05/16 02:34:18;;;;;;;0.60;0.20;;;;;;;;;;5061345;28;20040;-81
2021/05/16 02:36:45;;;;;;;1.67;0.20;;;;;;;;;;5076748;28;20024;-80
2021/05/16 02:39:11;;;;;;;0.40;0.10;;;;;;;;;;5076892;28;20210;-80
2021/05/16 02:41:37;;;;;;;1.10;0.20;;;;;;;;;;5063598;28;20032;-79
2021/05/16 02:44:03;;;;;;;1.13;0.30;;;;;;;;;;5063030;28;20025;-79
2021/05/16 02:46:30;;;;;;;2.35;0.30;;;;;;;;;;5062167;28;20067;-80
2021/05/16 02:48:56;;;;;;;2.28;0.20;;;;;;;;;;5060886;28;20025;-80
2021/05/16 02:51:22;;;;;;;1.98;0.17;;;;;;;;;;5061506;28;20099;-81
2021/05/16 02:53:48;;;;;;;1.10;0.20;;;;;;;;;;5058455;28;20056;-79
2021/05/16 02:56:15;;;;;;;0.73;0.20;;;;;;;;;;5065326;28;20395;-80
2021/05/16 02:58:41;;;;;;;0.20;0.20;;;;;;;;;;5073156;28;20025;-80
2021/05/16 03:01:08;;;;;;;0.95;0.13;;;;;;;;;;5063096;28;20021;-81
2021/05/16 03:03:34;;;;;;;1.33;0.15;;;;;;;;;;5060940;28;20025;-81
2021/05/16 03:06:01;;;;;;;0.35;0.35;;;;;;;;;;5060997;28;20073;-81
2021/05/16 03:08:27;;;;;;;1.27;0.40;;;;;;;;;;5060996;28;20040;-81
2021/05/16 03:10:53;;;;;;;1.35;0.30;;;;;;;;;;5060379;28;20078;-81
2021/05/16 03:13:19;;;;;;;2.28;0.50;;;;;;;;;;5058301;28;20039;-81
2021/05/16 03:15:45;;;;;;;0.20;0.20;;;;;;;;;;5061063;28;20025;-81
2021/05/16 03:18:11;;;;;;;0.65;0.20;;;;;;;;;;5059933;28;20036;-81
2021/05/16 03:20:37;;;;;;;0.38;0.30;;;;;;;;;;5058955;28;20123;-81
2021/05/16 03:23:03;;;;;;;0.10;0.10;;;;;;;;;;5061237;28;20052;-81
2021/05/16 03:25:30;;;;;;;0.20;0.20;;;;;;;;;;5060014;28;20021;-80
2021/05/16 03:27:56;;;;;;;0.77;0.20;;;;;;;;;;5061347;28;20021;-80
2021/05/16 03:30:22;;;;;;;0.10;0.10;;;;;;;;;;5059959;28;20053;-80
2021/05/16 03:32:48;;;;;;;0.47;0.22;;;;;;;;;;5058762;28;20036;-80
2021/05/16 03:35:14;;;;;;;0.63;0.25;;;;;;;;;;5059357;28;20082;-81
2021/05/16 03:37:41;;;;;;;0.47;0.40;;;;;;;;;;5058066;28;20128;-83
2021/05/16 03:40:07;;;;;;;0.30;0.30;;;;;;;;;;5059423;28;20370;-80
2021/05/16 03:42:34;;;;;;;1.08;0.22;;;;;;;;;;5058886;28;20029;-80
2021/05/16 03:47:47;;;;;;;0.77;0.40;;;;;;;;;;5054333;28;20033;-80
2021/05/16 03:50:13;;;;;;;1.48;0.43;;;;;;;;;;5061307;28;20048;-79
2021/05/16 03:52:42;;;;;;;1.75;0.30;;;;;;;;;;5075873;28;20097;-79
2021/05/16 03:55:09;;;;;;;1.98;0.38;;;;;;;;;;5068209;28;20041;-80
2021/05/16 03:57:35;;;;;;;1.30;0.20;;;;;;;;;;5071776;28;20180;-82
2021/05/16 04:00:02;;;;;;;1.70;0.28;;;;;;;;;;5066672;28;20025;-81
2021/05/16 04:02:28;;;;;;;1.48;0.32;;;;;;;;;;5060914;28;20432;-81
2021/05/16 04:04:55;;;;;;;0.65;0.20;;;;;;;;;;5058153;28;20017;-81
2021/05/16 04:07:24;;;;;;;0.55;0.20;;;;;;;;;;5058960;28;20516;-80
2021/05/16 04:09:50;;;;;;;0.68;0.20;;;;;;;;;;5058570;28;20051;-80
2021/05/16 04:12:17;;;;;;;0.90;0.20;;;;;;;;;;5057498;28;20059;-80
2021/05/16 04:14:49;;;;;;;0.90;0.35;;;;;;;;;;5056096;28;20028;-81
2021/05/16 04:17:15;;;;;;;1.13;0.30;;;;;;;;;;5055847;28;20814;-80
2021/05/16 04:19:41;;;;;;;2.13;0.40;;;;;;;;;;5056684;28;20044;-81
2021/05/16 04:22:07;;;;;;;0.30;0.30;;;;;;;;;;5056012;28;20017;-81
2021/05/16 04:24:34;;;;;;;0.90;0.30;;;;;;;;;;5056588;28;20025;-81
2021/05/16 04:27:00;;;;;;;0.30;0.20;;;;;;;;;;5055988;28;20025;-81
2021/05/16 04:29:26;;;;;;;1.73;0.30;;;;;;;;;;5056050;28;20079;-80
2021/05/16 04:31:53;;;;;;;0.57;0.40;;;;;;;;;;5056357;28;20429;-83
2021/05/16 04:34:19;;;;;;;0.70;0.10;;;;;;;;;;5049468;28;20043;-81
2021/05/16 04:36:45;;;;;;;1.17;0.30;;;;;;;;;;5059704;28;20074;-82
2021/05/16 04:39:11;;;;;;;0.85;0.17;;;;;;;;;;5061538;28;20116;-82
2021/05/16 04:41:37;;;;;;;0.90;0.30;;;;;;;;;;5059331;28;20029;-82
2021/05/16 04:44:03;;;;;;;2.63;0.38;;;;;;;;;;5061298;28;20107;-83
2021/05/16 04:46:30;;;;;;;0.52;0.28;;;;;;;;;;5064681;28;20033;-82
2021/05/16 04:48:56;;;;;;;0.17;0.17;;;;;;;;;;5063032;28;20025;-82
2021/05/16 04:51:22;;;;;;;3.60;0.50;;;;;;;;;;5063975;28;20108;-82
2021/05/16 04:53:48;;;;;;;3.50;0.40;;;;;;;;;;5063227;28;20166;-82
2021/05/16 04:56:15;;;;;;;0.57;0.30;;;;;;;;;;5061606;28;20035;-82
2021/05/16 04:58:41;;;;;;;1.15;0.40;;;;;;;;;;5063258;28;20108;-80
2021/05/16 05:01:07;;;;;;;0.57;0.30;;;;;;;;;;5063647;28;20033;-80
2021/05/16 05:03:34;;;;;;;0.75;0.30;;;;;;;;;;5061853;28;20021;-81
2021/05/16 05:06:00;;;;;;;1.23;0.32;;;;;;;;;;5071689;28;20025;-80
2021/05/16 05:08:26;;;;;;;0.57;0.22;;;;;;;;;;5071137;28;20025;-81
2021/05/16 05:10:53;;;;;;;2.33;0.47;;;;;;;;;;5063209;28;20492;-81
2021/05/16 05:13:19;;;;;;;0.82;0.30;;;;;;;;;;5064921;28;20112;-81
2021/05/16 05:15:45;;;;;;;1.67;0.40;;;;;;;;;;5068396;28;20347;-80
2021/05/16 05:18:11;;;;;;;0.68;0.25;;;;;;;;;;5064943;28;20033;-81
2021/05/16 05:20:37;;;;;;;0.75;0.30;;;;;;;;;;5064221;28;20089;-82
2021/05/16 05:23:04;;;;;;;2.15;0.50;;;;;;;;;;5065109;28;20029;-82
2021/05/16 05:25:30;;;;;;;2.38;0.28;;;;;;;;;;5073205;28;20040;-82
2021/05/16 05:27:56;;;;;;;1.58;0.30;;;;;;;;;;5069162;28;20025;-79
2021/05/16 05:30:23;;;;;;;0.45;0.30;;;;;;;;;;5073386;28;20029;-81
2021/05/16 05:32:49;;;;;;;2.88;0.40;;;;;;;;;;5074051;28;20032;-81
2021/05/16 05:35:16;;;;;;;2.08;0.40;;;;;;;;;;5067727;28;20032;-82
2021/05/16 05:37:42;;;;;;;1.58;0.40;;;;;;;;;;5064695;28;20029;-81
2021/05/16 05:40:09;;;;;;;0.65;0.43;;;;;;;;;;5063615;28;20028;-82
2021/05/16 05:42:35;;;;;;;1.17;0.30;;;;;;;;;;5063496;28;20089;-83
2021/05/16 05:45:01;;;;;;;1.42;0.30;;;;;;;;;;5062876;28;20036;-83
2021/05/16 05:47:27;;;;;;;1.25;0.50;;;;;;;;;;5065299;28;20055;-82
2021/05/16 05:49:53;;;;;;;0.38;0.20;;;;;;;;;;5066761;28;20055;-81
2021/05/16 05:52:19;;;;;;;6.95;1.02;;;;;;;;;;5063578;28;20024;-83
2021/05/16 05:54:46;;;;;;;2.83;0.45;;;;;;;;;;5073829;28;20025;-81
2021/05/16 05:57:12;;;;;;;3.08;0.85;;;;;;;;;;5075349;28;20044;-82
2021/05/16 05:59:38;;;;;;;2.67;0.70;;;;;;;;;;5077147;28;20020;-82
2021/05/16 06:02:04;;;;;;;6.60;1.10;;;;;;;;;;5074856;28;20280;-81
2021/05/16 06:04:30;;;;;;;2.72;0.93;;;;;;;;;;5074892;28;20101;-81
2021/05/16 06:06:56;;;;;;;3.58;0.90;;;;;;;;;;5074594;28;20077;-82
2021/05/16 06:09:23;;;;;;;2.40;0.80;;;;;;;;;;5075559;28;20076;-82
2021/05/16 06:11:49;;;;;;;1.90;0.50;;;;;;;;;;5077063;28;20036;-83
2021/05/16 06:14:15;;;;;;;4.30;0.98;;;;;;;;;;5076591;28;20082;-82
2021/05/16 06:16:41;;;;;;;3.53;0.60;;;;;;;;;;5074507;28;20051;-81
2021/05/16 06:19:07;;;;;;;1.92;0.77;;;;;;;;;;5075028;28;20067;-82
2021/05/16 06:21:33;;;;;;;0.88;0.63;;;;;;;;;;5074728;28;20595;-82
2021/05/16 06:26:29;;;;;;;3.67;0.70;;;;;;;;;;5073389;28;20093;-82
2021/05/16 06:28:55;;;;;;;1.25;0.60;;;;;;;;;;5073666;28;20036;-82
2021/05/16 06:31:21;;;;;;;1.67;0.80;;;;;;;;;;5068340;28;20279;-83
2021/05/16 06:33:48;;;;;;;1.52;0.60;;;;;;;;;;5067689;28;20386;-82
2021/05/16 06:36:14;;;;;;;3.00;0.73;;;;;;;;;;5067968;28;20104;-82
2021/05/16 06:38:40;;;;;;;3.38;0.88;;;;;;;;;;5066446;28;20043;-82
2021/05/16 06:41:07;;;;;;;1.73;0.60;;;;;;;;;;5065700;28;20021;-82
2021/05/16 06:43:33;;;;;;;2.95;0.80;;;;;;;;;;5062647;28;20103;-82
2021/05/16 06:45:59;;;;;;;2.72;0.70;;;;;;;;;;5063944;28;20021;-82
2021/05/16 06:48:26;;;;;;;1.42;0.50;;;;;;;;;;5072403;28;20025;-82
2021/05/16 06:50:53;;;;;;;2.90;0.75;;;;;;;;;;5070083;28;20436;-83
2021/05/16 06:53:20;;;;;;;4.20;0.98;;;;;;;;;;5070074;28;20017;-82
2021/05/16 06:55:47;;;;;;;6.63;2.53;;;;;;;;;;5073506;28;20070;-82
2021/05/16 06:58:13;;;;;;;3.00;1.40;;;;;;;;;;5073973;28;20028;-82
2021/05/16 07:00:39;;;;;;;2.22;1.02;;;;;;;;;;5075597;28;20021;-83
2021/05/16 07:03:06;;;;;;;1.52;0.70;;;;;;;;;;5075450;28;20033;-82
2021/05/16 07:05:32;;;;;;;3.70;0.90;;;;;;;;;;5075392;28;20108;-83
2021/05/16 07:07:58;;;;;;;3.17;1.00;;;;;;;;;;5070808;28;20051;-82
2021/05/16 07:10:24;;;;;;;0.90;0.60;;;;;;;;;;5072639;28;20017;-80
2021/05/16 07:12:51;;;;;;;2.45;1.00;;;;;;;;;;5076534;28;20028;-82
2021/05/16 07:15:17;;;;;;;4.55;1.05;;;;;;;;;;5075625;28;20025;-83
2021/05/16 07:17:44;;;;;;;3.70;0.90;;;;;;;;;;5066836;28;20017;-83
2021/05/16 07:20:11;;;;;;;2.03;0.60;;;;;;;;;;5058605;28;20507;-83
2021/05/16 07:22:37;;;;;;;3.28;0.73;;;;;;;;;;5061791;28;20106;-83
2021/05/16 07:25:04;;;;;;;4.13;0.60;;;;;;;;;;5060780;28;20478;-83
2021/05/16 07:27:30;;;;;;;3.15;1.02;;;;;;;;;;5060200;28;20044;-83
2021/05/16 07:29:56;;;;;;;4.25;1.02;;;;;;;;;;5060348;28;20459;-83
2021/05/16 07:32:22;;;;;;;2.60;0.68;;;;;;;;;;5059900;28;20730;-83
2021/05/16 07:34:48;;;;;;;1.75;0.82;;;;;;;;;;5061485;28;20254;-83
2021/05/16 07:37:14;;;;;;;3.15;0.85;;;;;;;;;;5062417;28;20367;-83
2021/05/16 07:39:40;;;;;;;4.18;1.23;;;;;;;;;;5060384;28;20107;-83
2021/05/16 07:42:07;;;;;;;3.78;0.80;;;;;;;;;;5061317;28;20033;-82
2021/05/16 07:44:33;;;;;;;6.80;0.82;;;;;;;;;;5060580;28;20057;-82
2021/05/16 07:46:59;;;;;;;4.93;1.30;;;;;;;;;;5060688;28;20021;-83
2021/05/16 07:49:25;;;;;;;2.75;0.98;;;;;;;;;;5061350;28;20021;-83
2021/05/16 07:51:51;;;;;;;4.95;0.98;;;;;;;;;;5059573;28;20025;-82
2021/05/16 07:54:17;;;;;;;3.22;1.08;;;;;;;;;;5058987;28;20025;-82
2021/05/16 07:56:44;;;;;;;2.28;0.82;;;;;;;;;;5060721;28;20117;-82
2021/05/16 07:59:10;;;;;;;3.05;1.10;;;;;;;;;;5060622;28;20477;-83
2021/05/16 08:01:36;;;;;;;3.33;1.20;;;;;;;;;;5060793;28;20048;-83
2021/05/16 08:04:03;;;;;;;4.22;1.05;;;;;;;;;;5061176;28;20029;-82
2021/05/16 08:06:29;;;;;;;1.40;0.73;;;;;;;;;;5061005;28;20655;-83
2021/05/16 08:08:55;;;;;;;2.78;1.00;;;;;;;;;;5061220;28;20021;-83
2021/05/16 08:11:21;;;;;;;4.70;1.23;;;;;;;;;;5065370;28;20040;-82
2021/05/16 08:13:48;;;;;;;3.28;1.00;;;;;;;;;;5064751;28;20634;-83
2021/05/16 08:16:14;;;;;;;2.85;0.60;;;;;;;;;;5075480;28;20035;-83
2021/05/16 08:18:40;;;;;;;3.90;0.75;;;;;;;;;;5082465;28;20035;-83
2021/05/16 08:21:06;;;;;;;3.45;0.93;;;;;;;;;;5082978;28;20435;-83
2021/05/16 08:23:32;;;;;;;3.63;1.20;;;;;;;;;;5071961;28;20136;-82
2021/05/16 08:25:59;;;;;;;1.77;0.70;;;;;;;;;;5077041;28;20005;-82
2021/05/16 08:28:25;;;;;;;4.97;1.15;;;;;;;;;;5058261;28;20025;-83
2021/05/16 08:30:52;;;;;;;3.45;1.05;;;;;;;;;;5059530;28;20017;-82
2021/05/16 08:33:18;;;;;;;3.15;0.90;;;;;;;;;;5061041;28;20055;-82
2021/05/16 08:35:44;;;;;;;4.15;1.00;;;;;;;;;;5061082;28;20089;-82
2021/05/16 08:38:10;;;;;;;4.40;0.98;;;;;;;;;;5059820;28;20032;-83
2021/05/16 08:40:36;;;;;;;2.67;0.95;;;;;;;;;;5063299;28;20029;-83
2021/05/16 08:43:03;;;;;;;1.50;0.60;;;;;;;;;;5061852;28;20397;-83
2021/05/16 08:45:29;;;;;;;2.40;1.00;;;;;;;;;;5065056;28;20119;-82
2021/05/16 08:47:56;;;;;;;3.55;1.00;;;;;;;;;;5061966;28;20056;-82
2021/05/16 08:50:22;;;;;;;3.15;0.95;;;;;;;;;;5061525;28;20028;-82
2021/05/16 08:52:48;;;;;;;2.25;0.70;;;;;;;;;;5061840;28;20108;-82
2021/05/16 08:55:16;;;;;;;3.90;1.23;;;;;;;;;;5061619;28;20033;-82
2021/05/16 08:57:42;;;;;;;1.88;0.70;;;;;;;;;;5060312;28;20120;-82
2021/05/16 09:00:16;;;;;;;1.48;0.68;;;;;;;;;;5064290;28;20021;-82
2021/05/16 09:03:01;;;;;;;4.30;0.95;;;;;;;;;;5063253;28;20159;-83
2021/05/16 09:05:28;;;;;;;2.35;0.60;;;;;;;;;;5061072;28;20032;-80
2021/05/16 09:07:58;;;;;;;2.85;0.75;;;;;;;;;;5064064;28;20028;-80
2021/05/16 09:10:25;;;;;;;3.65;0.90;;;;;;;;;;5061696;28;20018;-80
2021/05/16 09:12:51;;;;;;;2.88;0.80;;;;;;;;;;5052742;28;20104;-80
2021/05/16 09:15:21;;;;;;;4.57;1.00;;;;;;;;;;5060479;28;20036;-79
2021/05/16 09:17:52;;;;;;;1.65;0.60;;;;;;;;;;5060536;28;20480;-80
2021/05/16 09:20:24;;;;;;;2.03;0.60;;;;;;;;;;5063138;28;20028;-80
2021/05/16 09:22:50;;;;;;;3.90;0.80;;;;;;;;;;5061026;28;20029;-80
2021/05/16 09:25:29;;;;;;;1.98;0.80;;;;;;;;;;5060044;28;20425;-81
2021/05/16 09:27:57;;;;;;;2.80;1.13;;;;;;;;;;5062789;28;20021;-80
2021/05/16 09:30:23;;;;;;;4.30;0.70;;;;;;;;;;5060928;28;20021;-80
2021/05/16 09:32:53;;;;;;;1.55;0.60;;;;;;;;;;5059078;28;20032;-80
2021/05/16 09:35:26;;;;;;;1.90;0.50;;;;;;;;;;5059826;28;20029;-81
2021/05/16 09:38:05;;;;;;;2.80;0.80;;;;;;;;;;5063148;28;20074;-81
2021/05/16 09:40:38;;;;;;;1.92;0.77;;;;;;;;;;5062666;28;20473;-81
2021/05/16 09:43:10;;;;;;;3.78;1.35;;;;;;;;;;5061744;28;20029;-81
2021/05/16 09:45:47;;;;;;;3.25;0.82;;;;;;;;;;5071523;28;20027;-81
2021/05/16 09:48:28;;;;;;;2.20;1.00;;;;;;;;;;5062117;28;20055;-81
2021/05/16 09:51:33;;;;;;;2.47;0.70;;;;;;;;;;5061455;28;20362;-81
2021/05/16 09:54:05;;;;;;;2.45;0.80;;;;;;;;;;5018330;28;20026;-81
2021/05/16 09:56:38;;;;;;;6.55;1.02;;;;;;;;;;5037111;28;20037;-81
2021/05/16 09:59:06;;;;;;;2.47;0.70;;;;;;;;;;5043201;28;20018;-81
2021/05/16 10:01:32;;;;;;;3.10;0.90;;;;;;;;;;5041272;28;20029;-81
2021/05/16 10:03:59;;;;;;;2.20;1.17;;;;;;;;;;5042473;28;20482;-81
2021/05/16 10:06:26;;;;;;;5.82;0.90;;;;;;;;;;5041176;28;20026;-81
2021/05/16 10:08:52;;;;;;;4.82;0.95;;;;;;;;;;5041445;28;20101;-81
2021/05/16 10:11:29;;;;;;;3.30;1.25;;;;;;;;;;5040881;28;20032;-81
2021/05/16 10:14:07;;;;;;;3.25;1.05;;;;;;;;;;5039979;28;20438;-81
2021/05/16 10:16:52;;;;;;;2.33;0.88;;;;;;;;;;5060440;28;20025;-80
2021/05/16 10:19:19;;;;;;;2.97;1.38;;;;;;;;;;5061265;28;20036;-80
2021/05/16 10:21:45;;;;;;;2.72;0.73;;;;;;;;;;5061786;28;20436;-80
2021/05/16 10:24:12;;;;;;;3.83;1.35;;;;;;;;;;5062467;28;20036;-81
2021/05/16 10:26:39;;;;;;;3.63;0.82;;;;;;;;;;5061881;28;20056;-80
2021/05/16 10:29:13;;;;;;;2.75;0.77;;;;;;;;;;5075483;28;20013;-80
2021/05/16 10:31:39;;;;;;;1.88;0.52;;;;;;;;;;5069746;28;20109;-80
2021/05/16 10:34:24;;;;;;;2.42;0.75;;;;;;;;;;5067626;28;20397;-80
2021/05/16 10:36:50;;;;;;;2.30;0.90;;;;;;;;;;5085803;22;20038;-82
2021/05/16 10:39:35;;;;;;;2.92;0.90;;;;;;;;;;5041214;28;20096;-82
2021/05/16 10:42:10;;;;;;;1.65;0.60;;;;;;;;;;5040117;28;20038;-82
2021/05/16 10:44:39;;;;;;;3.20;0.80;;;;;;;;;;5045431;28;20466;-83
2021/05/16 10:47:05;;;;;;;3.03;0.80;;;;;;;;;;5041350;28;20021;-83
2021/05/16 10:49:33;;;;;;;1.45;0.80;;;;;;;;;;5044189;28;20089;-83
2021/05/16 10:52:19;;;;;;;3.40;0.70;;;;;;;;;;5040887;28;20104;-82
2021/05/16 10:54:48;;;;;;;3.22;1.00;;;;;;;;;;5037610;28;20026;-81
2021/05/16 10:57:14;;;;;;;3.33;0.70;;;;;;;;;;5042298;28;20022;-82
2021/05/16 10:59:41;;;;;;;2.75;0.90;;;;;;;;;;5033868;28;20029;-82
2021/05/16 11:02:07;;;;;;;3.30;0.70;;;;;;;;;;5023374;28;20060;-83
2021/05/16 11:04:46;;;;;;;1.50;0.70;;;;;;;;;;5022912;28;20018;-83
2021/05/16 11:07:31;;;;;;;1.58;0.52;;;;;;;;;;5039008;28;20029;-84
2021/05/16 11:10:16;;;;;;;1.65;0.85;;;;;;;;;;5045401;28;20022;-82
2021/05/16 11:12:42;;;;;;;3.40;1.05;;;;;;;;;;5045379;28;20036;-82
2021/05/16 11:15:09;;;;;;;4.50;0.93;;;;;;;;;;5043002;28;20045;-82
2021/05/16 11:17:35;;;;;;;4.85;0.75;;;;;;;;;;5042884;28;20052;-82
2021/05/16 11:20:01;;;;;;;3.35;0.82;;;;;;;;;;5040905;28;20025;-83
2021/05/16 11:22:27;;;;;;;3.20;1.00;;;;;;;;;;5039239;28;20050;-83
2021/05/16 11:24:53;;;;;;;1.85;0.50;;;;;;;;;;5024991;28;20117;-81
2021/05/16 11:27:20;;;;;;;2.65;0.90;;;;;;;;;;5022433;28;20065;-83
2021/05/16 11:29:54;;;;;;;2.40;0.75;;;;;;;;;;5021188;28;20022;-81
2021/05/16 11:32:28;;;;;;;2.38;0.68;;;;;;;;;;5021117;28;20124;-80
2021/05/16 11:35:04;;;;;;;2.50;0.60;;;;;;;;;;5023194;28;20048;-82
2021/05/16 11:37:31;;;;;;;2.90;1.00;;;;;;;;;;5031031;28;20057;-82
2021/05/16 11:40:17;;;;;;;2.13;0.60;;;;;;;;;;5040624;28;20025;-81
2021/05/16 11:42:43;;;;;;;3.25;0.93;;;;;;;;;;5054552;28;20036;-80
2021/05/16 11:45:10;;;;;;;1.75;0.60;;;;;;;;;;5056225;28;20026;-81
2021/05/16 11:47:40;;;;;;;1.23;0.60;;;;;;;;;;5041794;28;20033;-81
2021/05/16 11:50:07;;;;;;;1.55;0.82;;;;;;;;;;5035984;28;20038;-78
2021/05/16 11:52:33;;;;;;;2.25;0.80;;;;;;;;;;5036171;28;20020;-78
2021/05/16 11:55:03;;;;;;;1.33;0.68;;;;;;;;;;5037798;28;20048;-80
2021/05/16 11:57:30;;;;;;;2.80;0.95;;;;;;;;;;5051694;28;20016;-80
2021/05/16 11:59:56;;;;;;;1.00;0.60;;;;;;;;;;5052684;28;20030;-81
2021/05/16 12:02:23;;;;;;;1.30;0.57;;;;;;;;;;5045542;28;20033;-81
2021/05/16 12:04:49;;;;;;;1.33;0.65;;;;;;;;;;5043151;28;20037;-80
2021/05/16 12:07:25;;;;;;;3.40;0.77;;;;;;;;;;5040963;28;20087;-80
2021/05/16 12:09:51;;;;;;;1.33;0.65;;;;;;;;;;5032826;28;20363;-81
2021/05/16 12:12:19;;;;;;;1.58;0.60;;;;;;;;;;5045123;28;20485;-82
2021/05/16 12:14:45;;;;;;;1.63;0.50;;;;;;;;;;5038479;28;20037;-82
2021/05/16 12:17:13;;;;;;;2.53;0.45;;;;;;;;;;5031577;28;20143;-81
2021/05/16 12:19:40;;;;;;;2.95;0.50;;;;;;;;;;5043317;28;20037;-83
2021/05/16 12:22:11;;;;;;;1.13;0.65;;;;;;;;;;5039633;28;20030;-81
2021/05/16 12:24:45;;;;;;;0.63;0.50;;;;;;;;;;5044675;28;20029;-81
2021/05/16 12:27:12;;;;;;;3.90;0.50;;;;;;;;;;5025668;28;20060;-81
2021/05/16 12:29:42;;;;;;;2.10;0.80;;;;;;;;;;5034430;28;20067;-80
2021/05/16 12:32:11;;;;;;;1.38;0.60;;;;;;;;;;5043539;28;20026;-81
2021/05/16 12:34:38;;;;;;;1.25;0.70;;;;;;;;;;5034499;28;20021;-81
2021/05/16 12:37:14;;;;;;;3.50;0.70;;;;;;;;;;5037363;28;20064;-81
2021/05/16 12:39:42;;;;;;;1.38;0.55;;;;;;;;;;5034835;28;20026;-81
2021/05/16 12:42:24;;;;;;;2.08;0.50;;;;;;;;;;5033648;28;20389;-79
2021/05/16 12:44:51;;;;;;;1.58;0.80;;;;;;;;;;5032441;28;20037;-81
2021/05/16 12:47:27;;;;;;;0.60;0.50;;;;;;;;;;5036371;28;20028;-82
2021/05/16 12:50:07;;;;;;;1.98;1.25;;;;;;;;;;5027590;28;20030;-81
2021/05/16 12:52:33;;;;;;;1.52;0.57;;;;;;;;;;5028259;28;20056;-81
2021/05/16 12:55:05;;;;;;;0.98;0.43;;;;;;;;;;5027473;28;20136;-82
2021/05/16 13:00:05;;;;;;;1.80;0.75;;;;;;;;;;5036704;28;20036;-80
2021/05/16 13:02:32;;;;;;;1.45;0.70;;;;;;;;;;5037605;28;20040;-82
2021/05/16 13:04:59;;;;;;;1.48;0.52;;;;;;;;;;5039349;28;20038;-82
2021/05/16 13:07:43;;;;;;;3.58;0.70;;;;;;;;;;5038621;28;20121;-81
2021/05/16 13:10:29;;;;;;;1.95;0.70;;;;;;;;;;5035814;28;20025;-83
2021/05/16 13:13:13;;;;;;;1.60;0.80;;;;;;;;;;5023727;28;20034;-85
2021/05/16 13:15:41;;;;;;;3.72;1.17;;;;;;;;;;5034683;28;20030;-82
2021/05/16 13:18:24;;;;;;;2.47;1.35;;;;;;;;;;5037788;28;20032;-81
2021/05/16 13:20:51;;;;;;;0.98;0.52;;;;;;;;;;5051090;28;20041;-82
2021/05/16 13:23:20;;;;;;;1.67;0.70;;;;;;;;;;5055540;28;20037;-83
2021/05/16 13:25:47;;;;;;;1.65;0.60;;;;;;;;;;5046033;28;20044;-84
2021/05/16 13:28:16;;;;;;;2.92;0.43;;;;;;;;;;5045321;28;20022;-83
2021/05/16 13:30:46;;;;;;;0.88;0.47;;;;;;;;;;5044483;28;20025;-81
2021/05/16 13:33:13;;;;;;;1.88;0.77;;;;;;;;;;5045498;28;20030;-82
2021/05/16 13:35:39;;;;;;;1.40;0.73;;;;;;;;;;5043820;28;20034;-82
2021/05/16 13:38:05;;;;;;;3.40;0.50;;;;;;;;;;5041816;28;20025;-82
2021/05/16 13:40:31;;;;;;;1.45;0.50;;;;;;;;;;5043643;28;20021;-83
2021/05/16 13:42:58;;;;;;;1.38;0.80;;;;;;;;;;5043922;28;20048;-84
2021/05/16 13:45:24;;;;;;;0.77;0.50;;;;;;;;;;5046051;28;20030;-83
2021/05/16 13:47:50;;;;;;;1.08;0.60;;;;;;;;;;5045087;28;20025;-82
2021/05/16 13:50:17;;;;;;;1.90;0.55;;;;;;;;;;5039636;28;20060;-83
2021/05/16 13:52:50;;;;;;;0.95;0.45;;;;;;;;;;5037814;28;20014;-82
2021/05/16 13:55:16;;;;;;;1.73;0.47;;;;;;;;;;5043579;28;20029;-81
2021/05/16 13:57:42;;;;;;;1.45;0.50;;;;;;;;;;5033577;28;20061;-82
2021/05/16 14:00:08;;;;;;;2.10;0.70;;;;;;;;;;5041171;28;20034;-82
2021/05/16 14:02:34;;;;;;;2.30;0.90;;;;;;;;;;5028408;28;20058;-81
2021/05/16 14:05:00;;;;;;;1.80;0.47;;;;;;;;;;5024844;28;20029;-82
2021/05/16 14:07:26;;;;;;;0.98;0.60;;;;;;;;;;5044580;28;20028;-82
2021/05/16 14:09:52;;;;;;;1.70;0.65;;;;;;;;;;5045982;28;20080;-82
2021/05/16 14:12:19;;;;;;;3.60;0.82;;;;;;;;;;5044745;28;20108;-82
2021/05/16 14:14:46;;;;;;;0.60;0.43;;;;;;;;;;5036751;28;20052;-81
2021/05/16 14:17:13;;;;;;;2.40;0.43;;;;;;;;;;5035827;28;20133;-80
2021/05/16 14:19:41;;;;;;;3.30;1.17;;;;;;;;;;5028842;28;20026;-82
2021/05/16 14:22:07;;;;;;;0.40;0.40;;;;;;;;;;5030830;28;20043;-82
2021/05/16 14:24:33;;;;;;;0.95;0.43;;;;;;;;;;5044313;28;20022;-81
2021/05/16 14:26:59;;;;;;;1.45;0.50;;;;;;;;;;5024411;28;20045;-81
2021/05/16 14:29:25;;;;;;;1.73;0.38;;;;;;;;;;5023664;28;20034;-81
2021/05/16 14:31:52;;;;;;;1.65;0.60;;;;;;;;;;5024375;28;20026;-80
2021/05/16 14:34:18;;;;;;;1.50;0.47;;;;;;;;;;5023515;28;20025;-81
2021/05/16 14:36:44;;;;;;;1.30;0.47;;;;;;;;;;5035020;28;20093;-82
2021/05/16 14:39:10;;;;;;;0.88;0.50;;;;;;;;;;5027949;28;20133;-82
2021/05/16 14:41:36;;;;;;;0.88;0.65;;;;;;;;;;5031367;28;20037;-82
2021/05/16 14:44:02;;;;;;;0.70;0.50;;;;;;;;;;5027203;28;20435;-83
2021/05/16 14:46:29;;;;;;;0.57;0.55;;;;;;;;;;5037063;28;20061;-82
2021/05/16 14:48:55;;;;;;;1.15;0.70;;;;;;;;;;5043729;28;20026;-82
2021/05/16 14:51:27;;;;;;;1.17;0.57;;;;;;;;;;5026068;28;20435;-82
2021/05/16 14:53:53;;;;;;;0.70;0.38;;;;;;;;;;5027068;28;20022;-81